sensor_id;sensor_type;location;lat;lon;timestamp;temperature;humidity
40077;DHT22;25777;47.824;18.982;2022-07-06T00:02:18;18.00;99.90
40077;DHT22;25777;47.824;18.982;2022-07-06T00:04:43;17.90;99.90
40077;DHT22;25777;47.824;18.982;2022-07-06T00:07:09;17.80;99.90
40077;DHT22;25777;47.824;18.982;2022-07-06T00:09:34;17.90;99.90
40077;DHT22;25777;47.824;18.982;2022-07-06T00:12:00;17.80;99.90
40077;DHT22;25777;47.824;18.982;2022-07-06T00:14:26;17.90;99.90
40077;DHT22;25777;47.824;18.982;2022-07-06T00:16:51;17.90;99.90
40077;DHT22;25777;47.824;18.982;2022-07-06T00:19:17;17.90;99.90
40077;DHT22;25777;47.824;18.982;2022-07-06T00:21:42;17.80;99.90
40077;DHT22;25777;47.824;18.982;2022-07-06T00:24:08;17.80;99.90
40077;DHT22;25777;47.824;18.982;2022-07-06T00:26:33;17.70;99.90
40077;DHT22;25777;47.824;18.982;2022-07-06T00:28:59;17.70;99.90
40077;DHT22;25777;47.824;18.982;2022-07-06T00:31:24;17.70;99.90
40077;DHT22;25777;47.824;18.982;2022-07-06T00:33:50;17.60;99.90
40077;DHT22;25777;47.824;18.982;2022-07-06T00:36:16;17.60;99.90
40077;DHT22;25777;47.824;18.982;2022-07-06T00:38:41;17.60;99.90
40077;DHT22;25777;47.824;18.982;2022-07-06T00:41:07;17.60;99.90
40077;DHT22;25777;47.824;18.982;2022-07-06T00:46:16;17.50;99.90
40077;DHT22;25777;47.824;18.982;2022-07-06T00:48:42;17.40;99.90
40077;DHT22;25777;47.824;18.982;2022-07-06T00:51:07;17.40;99.90
40077;DHT22;25777;47.824;18.982;2022-07-06T00:53:33;17.50;99.90
40077;DHT22;25777;47.824;18.982;2022-07-06T00:55:59;17.40;99.90
40077;DHT22;25777;47.824;18.982;2022-07-06T00:58:24;17.50;99.90
40077;DHT22;25777;47.824;18.982;2022-07-06T01:00:50;17.40;99.90
40077;DHT22;25777;47.824;18.982;2022-07-06T01:03:15;17.40;99.90
40077;DHT22;25777;47.824;18.982;2022-07-06T01:05:41;17.40;99.90
40077;DHT22;25777;47.824;18.982;2022-07-06T01:08:07;17.30;99.90
40077;DHT22;25777;47.824;18.982;2022-07-06T01:10:32;17.30;99.90
40077;DHT22;25777;47.824;18.982;2022-07-06T01:12:58;17.40;99.90
40077;DHT22;25777;47.824;18.982;2022-07-06T01:15:24;17.40;99.90
40077;DHT22;25777;47.824;18.982;2022-07-06T01:17:50;17.40;99.90
40077;DHT22;25777;47.824;18.982;2022-07-06T01:20:17;17.40;99.90
40077;DHT22;25777;47.824;18.982;2022-07-06T01:22:43;17.30;99.90
40077;DHT22;25777;47.824;18.982;2022-07-06T01:25:09;17.30;99.90
40077;DHT22;25777;47.824;18.982;2022-07-06T01:27:34;17.10;99.90
40077;DHT22;25777;47.824;18.982;2022-07-06T01:30:06;17.10;99.90
40077;DHT22;25777;47.824;18.982;2022-07-06T01:32:32;17.00;99.90
40077;DHT22;25777;47.824;18.982;2022-07-06T01:34:58;17.10;99.90
40077;DHT22;25777;47.824;18.982;2022-07-06T01:37:23;17.10;99.90
40077;DHT22;25777;47.824;18.982;2022-07-06T01:39:49;17.10;99.90
40077;DHT22;25777;47.824;18.982;2022-07-06T01:42:14;17.20;99.90
40077;DHT22;25777;47.824;18.982;2022-07-06T01:44:40;17.20;99.90
40077;DHT22;25777;47.824;18.982;2022-07-06T01:47:05;17.00;99.90
40077;DHT22;25777;47.824;18.982;2022-07-06T01:49:31;17.00;99.90
40077;DHT22;25777;47.824;18.982;2022-07-06T01:51:56;17.10;99.90
40077;DHT22;25777;47.824;18.982;2022-07-06T01:54:22;17.10;99.90
40077;DHT22;25777;47.824;18.982;2022-07-06T01:56:47;17.10;99.90
40077;DHT22;25777;47.824;18.982;2022-07-06T01:59:13;17.10;99.90
40077;DHT22;25777;47.824;18.982;2022-07-06T02:01:38;17.00;99.90
40077;DHT22;25777;47.824;18.982;2022-07-06T02:04:04;16.90;99.90
40077;DHT22;25777;47.824;18.982;2022-07-06T02:06:29;16.90;99.90
40077;DHT22;25777;47.824;18.982;2022-07-06T02:08:55;17.00;99.90
40077;DHT22;25777;47.824;18.982;2022-07-06T02:11:20;17.00;99.90
40077;DHT22;25777;47.824;18.982;2022-07-06T02:13:46;16.90;99.90
40077;DHT22;25777;47.824;18.982;2022-07-06T02:16:11;16.90;99.90
40077;DHT22;25777;47.824;18.982;2022-07-06T02:18:37;16.90;99.90
40077;DHT22;25777;47.824;18.982;2022-07-06T02:21:05;16.80;99.90
40077;DHT22;25777;47.824;18.982;2022-07-06T02:23:32;16.70;99.90
40077;DHT22;25777;47.824;18.982;2022-07-06T02:25:58;16.80;99.90
40077;DHT22;25777;47.824;18.982;2022-07-06T02:28:23;16.70;99.90
40077;DHT22;25777;47.824;18.982;2022-07-06T02:30:49;16.70;99.90
40077;DHT22;25777;47.824;18.982;2022-07-06T02:33:14;16.80;99.90
40077;DHT22;25777;47.824;18.982;2022-07-06T02:35:40;16.80;99.90
40077;DHT22;25777;47.824;18.982;2022-07-06T02:38:08;17.00;99.90
40077;DHT22;25777;47.824;18.982;2022-07-06T02:40:34;17.10;99.90
40077;DHT22;25777;47.824;18.982;2022-07-06T02:43:00;17.00;99.90
40077;DHT22;25777;47.824;18.982;2022-07-06T02:45:25;17.00;99.90
40077;DHT22;25777;47.824;18.982;2022-07-06T02:47:51;16.90;99.90
40077;DHT22;25777;47.824;18.982;2022-07-06T02:50:18;16.90;99.90
40077;DHT22;25777;47.824;18.982;2022-07-06T02:52:43;16.80;99.90
40077;DHT22;25777;47.824;18.982;2022-07-06T02:55:09;16.80;99.90
40077;DHT22;25777;47.824;18.982;2022-07-06T02:57:35;17.00;99.90
40077;DHT22;25777;47.824;18.982;2022-07-06T03:00:00;17.00;99.90
40077;DHT22;25777;47.824;18.982;2022-07-06T03:02:26;17.10;99.90
40077;DHT22;25777;47.824;18.982;2022-07-06T03:04:51;17.10;99.90
40077;DHT22;25777;47.824;18.982;2022-07-06T03:07:17;17.20;99.90
40077;DHT22;25777;47.824;18.982;2022-07-06T03:09:42;17.20;99.90
40077;DHT22;25777;47.824;18.982;2022-07-06T03:12:08;17.10;99.90
40077;DHT22;25777;47.824;18.982;2022-07-06T03:14:33;17.10;99.90
40077;DHT22;25777;47.824;18.982;2022-07-06T03:16:59;17.10;99.90
40077;DHT22;25777;47.824;18.982;2022-07-06T03:19:24;17.10;99.90
40077;DHT22;25777;47.824;18.982;2022-07-06T03:21:50;17.20;99.90
40077;DHT22;25777;47.824;18.982;2022-07-06T03:24:16;17.20;99.90
40077;DHT22;25777;47.824;18.982;2022-07-06T03:26:41;17.20;99.90
40077;DHT22;25777;47.824;18.982;2022-07-06T03:29:07;17.20;99.90
40077;DHT22;25777;47.824;18.982;2022-07-06T03:31:32;17.20;99.90
40077;DHT22;25777;47.824;18.982;2022-07-06T03:33:58;17.20;99.90
40077;DHT22;25777;47.824;18.982;2022-07-06T03:36:23;17.20;99.90
40077;DHT22;25777;47.824;18.982;2022-07-06T03:38:49;17.20;99.90
40077;DHT22;25777;47.824;18.982;2022-07-06T03:41:15;17.10;99.90
40077;DHT22;25777;47.824;18.982;2022-07-06T03:43:41;17.10;99.90
40077;DHT22;25777;47.824;18.982;2022-07-06T03:46:07;17.10;99.90
40077;DHT22;25777;47.824;18.982;2022-07-06T03:48:32;17.10;99.90
40077;DHT22;25777;47.824;18.982;2022-07-06T03:50:58;17.10;99.90
40077;DHT22;25777;47.824;18.982;2022-07-06T03:53:24;17.10;99.90
40077;DHT22;25777;47.824;18.982;2022-07-06T03:55:49;17.00;99.90
40077;DHT22;25777;47.824;18.982;2022-07-06T03:58:33;17.10;99.90
40077;DHT22;25777;47.824;18.982;2022-07-06T04:00:59;17.10;99.90
40077;DHT22;25777;47.824;18.982;2022-07-06T04:03:25;17.10;99.90
40077;DHT22;25777;47.824;18.982;2022-07-06T04:05:50;17.10;99.90
40077;DHT22;25777;47.824;18.982;2022-07-06T04:08:16;17.10;99.90
40077;DHT22;25777;47.824;18.982;2022-07-06T04:10:41;17.10;99.90
40077;DHT22;25777;47.824;18.982;2022-07-06T04:13:07;17.20;99.90
40077;DHT22;25777;47.824;18.982;2022-07-06T04:15:32;17.40;99.90
40077;DHT22;25777;47.824;18.982;2022-07-06T04:17:58;17.50;99.90
40077;DHT22;25777;47.824;18.982;2022-07-06T04:20:24;17.60;99.90
40077;DHT22;25777;47.824;18.982;2022-07-06T04:22:51;17.70;99.90
40077;DHT22;25777;47.824;18.982;2022-07-06T04:25:16;17.80;99.90
40077;DHT22;25777;47.824;18.982;2022-07-06T04:27:42;17.80;99.90
40077;DHT22;25777;47.824;18.982;2022-07-06T04:30:08;17.80;99.90
40077;DHT22;25777;47.824;18.982;2022-07-06T04:32:34;17.80;99.90
40077;DHT22;25777;47.824;18.982;2022-07-06T04:34:59;17.80;99.90
40077;DHT22;25777;47.824;18.982;2022-07-06T04:37:25;17.90;99.90
40077;DHT22;25777;47.824;18.982;2022-07-06T04:39:50;17.90;99.90
40077;DHT22;25777;47.824;18.982;2022-07-06T04:42:16;17.90;99.90
40077;DHT22;25777;47.824;18.982;2022-07-06T04:44:41;17.90;99.90
40077;DHT22;25777;47.824;18.982;2022-07-06T04:47:07;18.00;99.90
40077;DHT22;25777;47.824;18.982;2022-07-06T04:49:33;18.00;99.90
40077;DHT22;25777;47.824;18.982;2022-07-06T04:51:58;18.00;99.90
40077;DHT22;25777;47.824;18.982;2022-07-06T04:54:24;18.00;99.90
40077;DHT22;25777;47.824;18.982;2022-07-06T04:56:49;18.10;99.90
40077;DHT22;25777;47.824;18.982;2022-07-06T04:59:16;18.10;99.90
40077;DHT22;25777;47.824;18.982;2022-07-06T05:01:41;18.20;99.90
40077;DHT22;25777;47.824;18.982;2022-07-06T05:04:07;18.30;99.90
40077;DHT22;25777;47.824;18.982;2022-07-06T05:06:33;18.30;99.90
40077;DHT22;25777;47.824;18.982;2022-07-06T05:08:58;18.40;99.90
40077;DHT22;25777;47.824;18.982;2022-07-06T05:11:25;18.50;99.90
40077;DHT22;25777;47.824;18.982;2022-07-06T05:13:51;18.50;99.90
40077;DHT22;25777;47.824;18.982;2022-07-06T05:16:16;18.50;99.90
40077;DHT22;25777;47.824;18.982;2022-07-06T05:18:42;18.60;99.90
40077;DHT22;25777;47.824;18.982;2022-07-06T05:21:07;18.60;99.90
40077;DHT22;25777;47.824;18.982;2022-07-06T05:23:33;18.70;99.90
40077;DHT22;25777;47.824;18.982;2022-07-06T05:25:58;18.80;99.90
40077;DHT22;25777;47.824;18.982;2022-07-06T05:28:24;18.90;99.90
40077;DHT22;25777;47.824;18.982;2022-07-06T05:30:49;18.90;99.90
40077;DHT22;25777;47.824;18.982;2022-07-06T05:33:15;19.00;99.90
40077;DHT22;25777;47.824;18.982;2022-07-06T05:35:41;19.10;99.90
40077;DHT22;25777;47.824;18.982;2022-07-06T05:38:06;19.10;99.90
40077;DHT22;25777;47.824;18.982;2022-07-06T05:40:32;19.20;99.90
40077;DHT22;25777;47.824;18.982;2022-07-06T05:42:57;19.30;99.90
40077;DHT22;25777;47.824;18.982;2022-07-06T05:45:23;19.20;99.90
40077;DHT22;25777;47.824;18.982;2022-07-06T05:47:48;19.40;99.90
40077;DHT22;25777;47.824;18.982;2022-07-06T05:50:32;19.50;99.90
40077;DHT22;25777;47.824;18.982;2022-07-06T05:53:02;19.50;99.90
40077;DHT22;25777;47.824;18.982;2022-07-06T05:55:28;19.60;99.90
40077;DHT22;25777;47.824;18.982;2022-07-06T05:57:54;19.70;99.90
40077;DHT22;25777;47.824;18.982;2022-07-06T06:00:23;19.80;99.90
40077;DHT22;25777;47.824;18.982;2022-07-06T06:02:49;19.90;99.90
40077;DHT22;25777;47.824;18.982;2022-07-06T06:05:15;20.00;99.90
40077;DHT22;25777;47.824;18.982;2022-07-06T06:07:41;20.00;99.90
40077;DHT22;25777;47.824;18.982;2022-07-06T06:10:07;20.10;99.90
40077;DHT22;25777;47.824;18.982;2022-07-06T06:12:34;20.20;99.90
40077;DHT22;25777;47.824;18.982;2022-07-06T06:14:59;20.20;99.90
40077;DHT22;25777;47.824;18.982;2022-07-06T06:17:25;20.30;99.90
40077;DHT22;25777;47.824;18.982;2022-07-06T06:19:51;20.40;99.90
40077;DHT22;25777;47.824;18.982;2022-07-06T06:22:16;20.50;99.90
40077;DHT22;25777;47.824;18.982;2022-07-06T06:24:42;20.50;99.90
40077;DHT22;25777;47.824;18.982;2022-07-06T06:27:08;20.60;99.90
40077;DHT22;25777;47.824;18.982;2022-07-06T06:29:33;20.70;99.90
40077;DHT22;25777;47.824;18.982;2022-07-06T06:31:58;20.90;99.90
40077;DHT22;25777;47.824;18.982;2022-07-06T06:34:24;20.90;99.90
40077;DHT22;25777;47.824;18.982;2022-07-06T06:36:49;20.80;99.90
40077;DHT22;25777;47.824;18.982;2022-07-06T06:39:15;20.80;99.90
40077;DHT22;25777;47.824;18.982;2022-07-06T06:41:41;21.00;99.90
40077;DHT22;25777;47.824;18.982;2022-07-06T06:44:06;21.10;99.90
40077;DHT22;25777;47.824;18.982;2022-07-06T06:46:32;21.10;99.90
40077;DHT22;25777;47.824;18.982;2022-07-06T06:48:57;21.30;99.90
40077;DHT22;25777;47.824;18.982;2022-07-06T06:51:23;21.30;99.90
40077;DHT22;25777;47.824;18.982;2022-07-06T06:53:48;21.50;99.90
40077;DHT22;25777;47.824;18.982;2022-07-06T06:56:14;21.40;99.90
40077;DHT22;25777;47.824;18.982;2022-07-06T06:58:39;21.60;99.90
40077;DHT22;25777;47.824;18.982;2022-07-06T07:01:05;21.70;99.90
40077;DHT22;25777;47.824;18.982;2022-07-06T07:03:31;21.70;99.90
40077;DHT22;25777;47.824;18.982;2022-07-06T07:05:56;21.80;99.90
40077;DHT22;25777;47.824;18.982;2022-07-06T07:08:22;22.10;99.90
40077;DHT22;25777;47.824;18.982;2022-07-06T07:10:47;22.30;99.90
40077;DHT22;25777;47.824;18.982;2022-07-06T07:13:13;22.30;99.90
40077;DHT22;25777;47.824;18.982;2022-07-06T07:15:39;22.30;99.90
40077;DHT22;25777;47.824;18.982;2022-07-06T07:18:04;22.50;99.90
40077;DHT22;25777;47.824;18.982;2022-07-06T07:20:30;22.60;99.90
40077;DHT22;25777;47.824;18.982;2022-07-06T07:22:56;22.80;99.90
40077;DHT22;25777;47.824;18.982;2022-07-06T07:25:22;23.00;99.90
40077;DHT22;25777;47.824;18.982;2022-07-06T07:27:48;22.90;99.90
40077;DHT22;25777;47.824;18.982;2022-07-06T07:30:13;22.90;99.90
40077;DHT22;25777;47.824;18.982;2022-07-06T07:32:39;23.00;99.90
40077;DHT22;25777;47.824;18.982;2022-07-06T07:35:06;23.30;99.90
40077;DHT22;25777;47.824;18.982;2022-07-06T07:37:31;23.60;99.90
40077;DHT22;25777;47.824;18.982;2022-07-06T07:39:57;23.70;99.90
40077;DHT22;25777;47.824;18.982;2022-07-06T07:42:23;23.90;99.90
40077;DHT22;25777;47.824;18.982;2022-07-06T07:44:48;24.10;99.90
40077;DHT22;25777;47.824;18.982;2022-07-06T07:47:14;24.10;99.90
40077;DHT22;25777;47.824;18.982;2022-07-06T07:49:39;24.20;99.90
40077;DHT22;25777;47.824;18.982;2022-07-06T07:52:05;24.30;99.90
40077;DHT22;25777;47.824;18.982;2022-07-06T07:54:31;24.20;99.90
40077;DHT22;25777;47.824;18.982;2022-07-06T07:56:57;24.30;99.90
40077;DHT22;25777;47.824;18.982;2022-07-06T07:59:22;24.40;99.90
40077;DHT22;25777;47.824;18.982;2022-07-06T08:01:48;24.50;99.90
40077;DHT22;25777;47.824;18.982;2022-07-06T08:04:14;24.50;99.90
40077;DHT22;25777;47.824;18.982;2022-07-06T08:06:39;24.70;99.90
40077;DHT22;25777;47.824;18.982;2022-07-06T08:09:05;24.80;99.90
40077;DHT22;25777;47.824;18.982;2022-07-06T08:11:33;25.10;99.90
40077;DHT22;25777;47.824;18.982;2022-07-06T08:13:58;25.00;99.90
40077;DHT22;25777;47.824;18.982;2022-07-06T08:16:24;25.00;99.90
40077;DHT22;25777;47.824;18.982;2022-07-06T08:18:50;25.00;99.90
40077;DHT22;25777;47.824;18.982;2022-07-06T08:21:15;25.20;99.90
40077;DHT22;25777;47.824;18.982;2022-07-06T08:23:41;25.20;99.90
40077;DHT22;25777;47.824;18.982;2022-07-06T08:26:06;25.30;99.90
40077;DHT22;25777;47.824;18.982;2022-07-06T08:28:32;25.30;99.90
40077;DHT22;25777;47.824;18.982;2022-07-06T08:30:57;25.60;99.90
40077;DHT22;25777;47.824;18.982;2022-07-06T08:33:23;25.60;99.90
40077;DHT22;25777;47.824;18.982;2022-07-06T08:35:49;25.60;99.90
40077;DHT22;25777;47.824;18.982;2022-07-06T08:38:14;25.90;99.90
40077;DHT22;25777;47.824;18.982;2022-07-06T08:40:40;25.90;99.90
40077;DHT22;25777;47.824;18.982;2022-07-06T08:43:08;26.20;99.90
40077;DHT22;25777;47.824;18.982;2022-07-06T08:45:33;26.10;99.90
40077;DHT22;25777;47.824;18.982;2022-07-06T08:48:03;26.00;99.60
40077;DHT22;25777;47.824;18.982;2022-07-06T08:50:29;25.90;99.30
40077;DHT22;25777;47.824;18.982;2022-07-06T08:52:55;25.90;99.80
40077;DHT22;25777;47.824;18.982;2022-07-06T08:55:20;26.10;99.30
40077;DHT22;25777;47.824;18.982;2022-07-06T08:57:46;26.10;98.50
40077;DHT22;25777;47.824;18.982;2022-07-06T09:00:12;26.10;99.00
40077;DHT22;25777;47.824;18.982;2022-07-06T09:02:39;26.10;99.90
40077;DHT22;25777;47.824;18.982;2022-07-06T09:05:05;26.50;99.70
40077;DHT22;25777;47.824;18.982;2022-07-06T09:07:31;26.80;97.60
40077;DHT22;25777;47.824;18.982;2022-07-06T09:09:57;26.90;96.90
40077;DHT22;25777;47.824;18.982;2022-07-06T09:12:26;26.80;96.20
40077;DHT22;25777;47.824;18.982;2022-07-06T09:14:52;26.70;96.20
40077;DHT22;25777;47.824;18.982;2022-07-06T09:17:19;26.70;97.30
40077;DHT22;25777;47.824;18.982;2022-07-06T09:19:45;27.00;96.40
40077;DHT22;25777;47.824;18.982;2022-07-06T09:22:11;27.10;95.10
40077;DHT22;25777;47.824;18.982;2022-07-06T09:24:49;27.20;95.00
40077;DHT22;25777;47.824;18.982;2022-07-06T09:27:16;27.30;95.00
40077;DHT22;25777;47.824;18.982;2022-07-06T09:29:42;27.50;94.60
40077;DHT22;25777;47.824;18.982;2022-07-06T09:32:07;27.60;94.50
40077;DHT22;25777;47.824;18.982;2022-07-06T09:34:40;27.70;94.20
40077;DHT22;25777;47.824;18.982;2022-07-06T09:37:06;27.50;93.30
40077;DHT22;25777;47.824;18.982;2022-07-06T09:39:31;27.20;92.80
40077;DHT22;25777;47.824;18.982;2022-07-06T09:42:00;27.50;92.80
40077;DHT22;25777;47.824;18.982;2022-07-06T09:44:27;27.50;91.60
40077;DHT22;25777;47.824;18.982;2022-07-06T09:46:53;27.60;91.10
40077;DHT22;25777;47.824;18.982;2022-07-06T09:49:20;27.50;91.40
40077;DHT22;25777;47.824;18.982;2022-07-06T09:51:46;27.60;90.60
40077;DHT22;25777;47.824;18.982;2022-07-06T09:54:13;28.20;91.20
40077;DHT22;25777;47.824;18.982;2022-07-06T09:56:39;28.30;90.30
40077;DHT22;25777;47.824;18.982;2022-07-06T09:59:12;28.50;88.40
40077;DHT22;25777;47.824;18.982;2022-07-06T10:01:38;28.60;88.70
40077;DHT22;25777;47.824;18.982;2022-07-06T10:04:10;28.10;86.80
40077;DHT22;25777;47.824;18.982;2022-07-06T10:06:38;28.20;87.30
40077;DHT22;25777;47.824;18.982;2022-07-06T10:09:08;28.20;85.50
40077;DHT22;25777;47.824;18.982;2022-07-06T10:11:34;28.30;85.10
40077;DHT22;25777;47.824;18.982;2022-07-06T10:14:03;28.50;84.00
40077;DHT22;25777;47.824;18.982;2022-07-06T10:16:28;28.60;85.80
40077;DHT22;25777;47.824;18.982;2022-07-06T10:18:54;28.70;83.10
40077;DHT22;25777;47.824;18.982;2022-07-06T10:21:23;29.00;82.00
40077;DHT22;25777;47.824;18.982;2022-07-06T10:23:49;29.10;82.10
40077;DHT22;25777;47.824;18.982;2022-07-06T10:26:16;29.20;80.40
40077;DHT22;25777;47.824;18.982;2022-07-06T10:28:41;29.40;79.50
40077;DHT22;25777;47.824;18.982;2022-07-06T10:31:07;29.60;78.10
40077;DHT22;25777;47.824;18.982;2022-07-06T10:33:33;29.30;73.50
40077;DHT22;25777;47.824;18.982;2022-07-06T10:35:59;29.40;77.20
40077;DHT22;25777;47.824;18.982;2022-07-06T10:38:31;29.20;74.30
40077;DHT22;25777;47.824;18.982;2022-07-06T10:41:07;29.30;76.00
40077;DHT22;25777;47.824;18.982;2022-07-06T10:43:33;29.50;73.90
40077;DHT22;25777;47.824;18.982;2022-07-06T10:46:04;29.10;78.10
40077;DHT22;25777;47.824;18.982;2022-07-06T10:48:57;29.50;80.70
40077;DHT22;25777;47.824;18.982;2022-07-06T10:51:28;29.50;72.80
40077;DHT22;25777;47.824;18.982;2022-07-06T10:53:58;29.60;74.50
40077;DHT22;25777;47.824;18.982;2022-07-06T10:56:42;29.50;74.00
40077;DHT22;25777;47.824;18.982;2022-07-06T10:59:10;29.70;72.70
40077;DHT22;25777;47.824;18.982;2022-07-06T11:01:36;28.80;70.90
40077;DHT22;25777;47.824;18.982;2022-07-06T11:06:38;29.30;71.60
40077;DHT22;25777;47.824;18.982;2022-07-06T11:09:10;29.80;69.80
40077;DHT22;25777;47.824;18.982;2022-07-06T11:14:09;29.70;68.60
40077;DHT22;25777;47.824;18.982;2022-07-06T11:19:14;29.30;65.00
40077;DHT22;25777;47.824;18.982;2022-07-06T11:21:44;29.10;65.00
40077;DHT22;25777;47.824;18.982;2022-07-06T11:24:17;29.50;65.70
40077;DHT22;25777;47.824;18.982;2022-07-06T11:26:47;29.70;64.20
40077;DHT22;25777;47.824;18.982;2022-07-06T11:29:15;30.00;62.10
40077;DHT22;25777;47.824;18.982;2022-07-06T11:31:43;30.00;59.70
40077;DHT22;25777;47.824;18.982;2022-07-06T11:34:10;29.90;60.90
40077;DHT22;25777;47.824;18.982;2022-07-06T11:36:37;29.60;59.60
40077;DHT22;25777;47.824;18.982;2022-07-06T11:39:04;29.80;59.00
40077;DHT22;25777;47.824;18.982;2022-07-06T11:41:34;29.70;57.80
40077;DHT22;25777;47.824;18.982;2022-07-06T11:44:00;29.70;59.20
40077;DHT22;25777;47.824;18.982;2022-07-06T11:46:26;29.90;59.90
40077;DHT22;25777;47.824;18.982;2022-07-06T11:51:27;29.80;58.70
40077;DHT22;25777;47.824;18.982;2022-07-06T11:53:56;30.20;58.30
40077;DHT22;25777;47.824;18.982;2022-07-06T11:56:22;30.00;57.50
40077;DHT22;25777;47.824;18.982;2022-07-06T11:58:51;29.50;57.70
40077;DHT22;25777;47.824;18.982;2022-07-06T12:01:17;29.50;59.80
40077;DHT22;25777;47.824;18.982;2022-07-06T12:03:44;29.60;59.90
40077;DHT22;25777;47.824;18.982;2022-07-06T12:08:50;29.60;59.40
40077;DHT22;25777;47.824;18.982;2022-07-06T12:11:19;29.60;58.90
40077;DHT22;25777;47.824;18.982;2022-07-06T12:13:45;29.50;60.40
40077;DHT22;25777;47.824;18.982;2022-07-06T12:16:15;28.80;59.80
40077;DHT22;25777;47.824;18.982;2022-07-06T12:18:43;28.20;60.70
40077;DHT22;25777;47.824;18.982;2022-07-06T12:21:10;28.90;60.20
40077;DHT22;25777;47.824;18.982;2022-07-06T12:23:45;29.10;59.80
40077;DHT22;25777;47.824;18.982;2022-07-06T12:26:13;29.20;62.10
40077;DHT22;25777;47.824;18.982;2022-07-06T12:28:39;29.20;59.90
40077;DHT22;25777;47.824;18.982;2022-07-06T12:31:05;28.40;61.80
40077;DHT22;25777;47.824;18.982;2022-07-06T12:33:31;28.30;63.20
40077;DHT22;25777;47.824;18.982;2022-07-06T12:36:14;28.20;65.90
40077;DHT22;25777;47.824;18.982;2022-07-06T12:38:47;28.40;63.00
40077;DHT22;25777;47.824;18.982;2022-07-06T12:41:26;27.90;63.00
40077;DHT22;25777;47.824;18.982;2022-07-06T12:44:06;27.80;61.90
40077;DHT22;25777;47.824;18.982;2022-07-06T12:46:40;27.70;62.50
40077;DHT22;25777;47.824;18.982;2022-07-06T12:51:53;29.10;62.90
40077;DHT22;25777;47.824;18.982;2022-07-06T12:54:19;28.90;61.60
40077;DHT22;25777;47.824;18.982;2022-07-06T12:59:33;28.90;62.70
40077;DHT22;25777;47.824;18.982;2022-07-06T13:02:00;29.00;63.10
40077;DHT22;25777;47.824;18.982;2022-07-06T13:04:29;29.10;63.00
40077;DHT22;25777;47.824;18.982;2022-07-06T13:06:55;28.70;63.60
40077;DHT22;25777;47.824;18.982;2022-07-06T13:09:21;28.60;64.20
40077;DHT22;25777;47.824;18.982;2022-07-06T13:11:48;28.80;64.30
40077;DHT22;25777;47.824;18.982;2022-07-06T13:14:18;28.90;63.90
40077;DHT22;25777;47.824;18.982;2022-07-06T13:16:45;28.80;62.50
40077;DHT22;25777;47.824;18.982;2022-07-06T13:19:12;28.60;63.00
40077;DHT22;25777;47.824;18.982;2022-07-06T13:21:38;28.70;63.20
40077;DHT22;25777;47.824;18.982;2022-07-06T13:24:04;29.20;62.90
40077;DHT22;25777;47.824;18.982;2022-07-06T13:26:31;29.20;63.10
40077;DHT22;25777;47.824;18.982;2022-07-06T13:29:04;29.50;66.10
40077;DHT22;25777;47.824;18.982;2022-07-06T13:31:30;29.60;63.50
40077;DHT22;25777;47.824;18.982;2022-07-06T13:33:56;29.40;63.40
40077;DHT22;25777;47.824;18.982;2022-07-06T13:36:23;28.90;61.80
40077;DHT22;25777;47.824;18.982;2022-07-06T13:38:49;29.10;63.30
40077;DHT22;25777;47.824;18.982;2022-07-06T13:41:15;28.80;63.50
40077;DHT22;25777;47.824;18.982;2022-07-06T13:43:40;29.10;65.20
40077;DHT22;25777;47.824;18.982;2022-07-06T13:46:07;29.00;63.30
40077;DHT22;25777;47.824;18.982;2022-07-06T13:48:34;28.80;62.30
40077;DHT22;25777;47.824;18.982;2022-07-06T13:51:00;28.60;62.20
40077;DHT22;25777;47.824;18.982;2022-07-06T13:53:26;28.50;62.60
40077;DHT22;25777;47.824;18.982;2022-07-06T13:55:53;28.70;62.30
40077;DHT22;25777;47.824;18.982;2022-07-06T13:58:19;28.70;62.30
40077;DHT22;25777;47.824;18.982;2022-07-06T14:00:46;28.20;60.60
40077;DHT22;25777;47.824;18.982;2022-07-06T14:03:12;28.20;62.00
40077;DHT22;25777;47.824;18.982;2022-07-06T14:05:37;28.50;63.40
40077;DHT22;25777;47.824;18.982;2022-07-06T14:08:03;28.40;60.60
40077;DHT22;25777;47.824;18.982;2022-07-06T14:10:29;28.40;60.10
40077;DHT22;25777;47.824;18.982;2022-07-06T14:12:55;28.60;61.00
40077;DHT22;25777;47.824;18.982;2022-07-06T14:15:21;28.20;60.40
40077;DHT22;25777;47.824;18.982;2022-07-06T14:17:47;28.20;60.50
40077;DHT22;25777;47.824;18.982;2022-07-06T14:20:15;28.20;59.60
40077;DHT22;25777;47.824;18.982;2022-07-06T14:22:41;28.30;60.80
40077;DHT22;25777;47.824;18.982;2022-07-06T14:25:08;28.40;60.90
40077;DHT22;25777;47.824;18.982;2022-07-06T14:27:34;28.20;59.30
40077;DHT22;25777;47.824;18.982;2022-07-06T14:30:00;28.10;59.70
40077;DHT22;25777;47.824;18.982;2022-07-06T14:32:26;28.00;60.40
40077;DHT22;25777;47.824;18.982;2022-07-06T14:34:52;27.90;61.70
40077;DHT22;25777;47.824;18.982;2022-07-06T14:37:17;28.10;60.70
40077;DHT22;25777;47.824;18.982;2022-07-06T14:39:43;28.10;62.60
40077;DHT22;25777;47.824;18.982;2022-07-06T14:42:12;28.10;60.80
40077;DHT22;25777;47.824;18.982;2022-07-06T14:44:38;28.00;59.70
40077;DHT22;25777;47.824;18.982;2022-07-06T14:47:04;28.00;58.60
40077;DHT22;25777;47.824;18.982;2022-07-06T14:49:30;27.80;57.40
40077;DHT22;25777;47.824;18.982;2022-07-06T14:51:56;27.70;58.70
40077;DHT22;25777;47.824;18.982;2022-07-06T14:54:25;27.70;58.50
40077;DHT22;25777;47.824;18.982;2022-07-06T14:56:51;27.70;58.10
40077;DHT22;25777;47.824;18.982;2022-07-06T14:59:17;27.80;59.20
40077;DHT22;25777;47.824;18.982;2022-07-06T15:01:43;27.40;58.70
40077;DHT22;25777;47.824;18.982;2022-07-06T15:04:09;27.20;57.70
40077;DHT22;25777;47.824;18.982;2022-07-06T15:06:35;27.20;58.40
40077;DHT22;25777;47.824;18.982;2022-07-06T15:09:00;27.30;58.80
40077;DHT22;25777;47.824;18.982;2022-07-06T15:11:30;27.20;60.20
40077;DHT22;25777;47.824;18.982;2022-07-06T15:13:55;27.20;60.60
40077;DHT22;25777;47.824;18.982;2022-07-06T15:16:21;27.20;59.90
40077;DHT22;25777;47.824;18.982;2022-07-06T15:18:47;27.20;58.90
40077;DHT22;25777;47.824;18.982;2022-07-06T15:21:12;27.10;59.40
40077;DHT22;25777;47.824;18.982;2022-07-06T15:23:38;27.00;58.60
40077;DHT22;25777;47.824;18.982;2022-07-06T15:26:08;26.90;58.60
40077;DHT22;25777;47.824;18.982;2022-07-06T15:28:34;26.90;58.70
40077;DHT22;25777;47.824;18.982;2022-07-06T15:31:00;26.80;60.20
40077;DHT22;25777;47.824;18.982;2022-07-06T15:33:26;26.70;60.50